sensor_id;sensor_type;location;lat;lon;timestamp;pressure;altitude;pressure_sealevel;temperature;humidity
21730;BME280;11027;51.030;13.812;2023-06-26T00:01:06;100289.91;;;21.12;70.34
21730;BME280;11027;51.030;13.812;2023-06-26T00:03:31;100282.19;;;21.14;70.22
21730;BME280;11027;51.030;13.812;2023-06-26T00:05:58;100282.19;;;21.14;70.11
21730;BME280;11027;51.030;13.812;2023-06-26T00:08:25;100282.69;;;21.11;70.46
21730;BME280;11027;51.030;13.812;2023-06-26T00:10:50;100271.41;;;21.01;70.66
21730;BME280;11027;51.030;13.812;2023-06-26T00:13:16;100276.72;;;20.90;70.71
21730;BME280;11027;51.030;13.812;2023-06-26T00:15:41;100283.25;;;20.84;71.16
21730;BME280;11027;51.030;13.812;2023-06-26T00:18:07;100280.41;;;20.79;71.16
21730;BME280;11027;51.030;13.812;2023-06-26T00:20:32;100272.34;;;20.77;71.50
21730;BME280;11027;51.030;13.812;2023-06-26T00:22:59;100274.28;;;20.77;71.59
21730;BME280;11027;51.030;13.812;2023-06-26T00:25:24;100269.22;;;20.74;71.77
21730;BME280;11027;51.030;13.812;2023-06-26T00:27:50;100271.38;;;20.72;72.10
21730;BME280;11027;51.030;13.812;2023-06-26T00:30:15;100273.56;;;20.70;71.70
21730;BME280;11027;51.030;13.812;2023-06-26T00:32:40;100272.38;;;20.66;71.87
21730;BME280;11027;51.030;13.812;2023-06-26T00:35:06;100265.03;;;20.60;71.96
21730;BME280;11027;51.030;13.812;2023-06-26T00:37:31;100266.34;;;20.57;71.85
21730;BME280;11027;51.030;13.812;2023-06-26T00:39:56;100269.34;;;20.55;72.17
21730;BME280;11027;51.030;13.812;2023-06-26T00:42:21;100260.97;;;20.50;72.29
21730;BME280;11027;51.030;13.812;2023-06-26T00:44:47;100257.09;;;20.51;72.00
21730;BME280;11027;51.030;13.812;2023-06-26T00:47:14;100256.63;;;20.54;72.09
21730;BME280;11027;51.030;13.812;2023-06-26T00:49:40;100262.63;;;20.51;72.03
21730;BME280;11027;51.030;13.812;2023-06-26T00:52:06;100263.00;;;20.43;72.31
21730;BME280;11027;51.030;13.812;2023-06-26T00:54:31;100254.00;;;20.36;72.26
21730;BME280;11027;51.030;13.812;2023-06-26T00:56:56;100254.94;;;20.30;72.75
21730;BME280;11027;51.030;13.812;2023-06-26T00:59:22;100258.81;;;20.29;72.72
21730;BME280;11027;51.030;13.812;2023-06-26T01:01:47;100244.47;;;20.32;72.93
21730;BME280;11027;51.030;13.812;2023-06-26T01:04:13;100248.00;;;20.27;72.68
21730;BME280;11027;51.030;13.812;2023-06-26T01:06:44;100245.97;;;20.23;73.04
21730;BME280;11027;51.030;13.812;2023-06-26T01:09:15;100256.44;;;20.21;73.07
21730;BME280;11027;51.030;13.812;2023-06-26T01:11:41;100251.72;;;20.21;73.01
21730;BME280;11027;51.030;13.812;2023-06-26T01:14:06;100252.56;;;20.22;73.15
21730;BME280;11027;51.030;13.812;2023-06-26T01:16:32;100250.91;;;20.21;73.20
21730;BME280;11027;51.030;13.812;2023-06-26T01:18:58;100250.91;;;20.21;73.20
21730;BME280;11027;51.030;13.812;2023-06-26T01:21:24;100241.16;;;20.18;73.25
21730;BME280;11027;51.030;13.812;2023-06-26T01:24:01;100244.16;;;20.16;73.31
21730;BME280;11027;51.030;13.812;2023-06-26T01:26:29;100233.09;;;20.16;73.44
21730;BME280;11027;51.030;13.812;2023-06-26T01:28:56;100240.06;;;20.07;73.53
21730;BME280;11027;51.030;13.812;2023-06-26T01:31:24;100238.88;;;20.03;73.47
21730;BME280;11027;51.030;13.812;2023-06-26T01:33:49;100234.69;;;20.01;73.45
21730;BME280;11027;51.030;13.812;2023-06-26T01:36:14;100244.66;;;19.90;74.05
21730;BME280;11027;51.030;13.812;2023-06-26T01:38:40;100235.78;;;19.88;73.97
21730;BME280;11027;51.030;13.812;2023-06-26T01:41:06;100242.00;;;19.83;74.18
21730;BME280;11027;51.030;13.812;2023-06-26T01:46:24;100233.38;;;19.80;74.72
21730;BME280;11027;51.030;13.812;2023-06-26T01:49:01;100228.66;;;19.80;74.77
21730;BME280;11027;51.030;13.812;2023-06-26T01:51:30;100220.97;;;19.82;74.84
21730;BME280;11027;51.030;13.812;2023-06-26T01:53:58;100221.81;;;19.83;74.43
21730;BME280;11027;51.030;13.812;2023-06-26T01:56:26;100217.97;;;19.84;74.51
21730;BME280;11027;51.030;13.812;2023-06-26T01:58:53;100219.66;;;19.85;74.28
21730;BME280;11027;51.030;13.812;2023-06-26T02:01:21;100216.28;;;19.83;74.69
21730;BME280;11027;51.030;13.812;2023-06-26T02:03:47;100207.41;;;19.81;74.75
21730;BME280;11027;51.030;13.812;2023-06-26T02:06:13;100211.25;;;19.80;74.45
21730;BME280;11027;51.030;13.812;2023-06-26T02:08:38;100215.09;;;19.78;74.70
21730;BME280;11027;51.030;13.812;2023-06-26T02:11:03;100211.72;;;19.76;74.59
21730;BME280;11027;51.030;13.812;2023-06-26T02:13:29;100216.66;;;19.74;74.63
21730;BME280;11027;51.030;13.812;2023-06-26T02:15:54;100209.47;;;19.73;74.82
21730;BME280;11027;51.030;13.812;2023-06-26T02:18:19;100218.81;;;19.72;74.52
21730;BME280;11027;51.030;13.812;2023-06-26T02:20:47;100214.81;;;19.68;74.72
21730;BME280;11027;51.030;13.812;2023-06-26T02:23:13;100217.94;;;19.60;74.81
21730;BME280;11027;51.030;13.812;2023-06-26T02:25:38;100221.75;;;19.59;74.87
21730;BME280;11027;51.030;13.812;2023-06-26T02:28:03;100214.56;;;19.58;74.96
21730;BME280;11027;51.030;13.812;2023-06-26T02:30:29;100211.66;;;19.53;74.87
21730;BME280;11027;51.030;13.812;2023-06-26T02:32:54;100207.69;;;19.49;75.34
21730;BME280;11027;51.030;13.812;2023-06-26T02:35:19;100207.09;;;19.47;75.33
21730;BME280;11027;51.030;13.812;2023-06-26T02:37:44;100211.31;;;19.49;75.25
21730;BME280;11027;51.030;13.812;2023-06-26T02:40:10;100207.09;;;19.47;75.15
21730;BME280;11027;51.030;13.812;2023-06-26T02:42:35;100202.53;;;19.41;75.24
21730;BME280;11027;51.030;13.812;2023-06-26T02:45:00;100201.31;;;19.36;75.74
21730;BME280;11027;51.030;13.812;2023-06-26T02:47:26;100204.81;;;19.32;75.71
21730;BME280;11027;51.030;13.812;2023-06-26T02:49:51;100203.97;;;19.31;75.91
21730;BME280;11027;51.030;13.812;2023-06-26T02:52:16;100203.97;;;19.31;75.46
21730;BME280;11027;51.030;13.812;2023-06-26T02:54:41;100192.91;;;19.31;75.81
21730;BME280;11027;51.030;13.812;2023-06-26T02:57:07;100207.34;;;19.33;75.71
21730;BME280;11027;51.030;13.812;2023-06-26T02:59:32;100200.59;;;19.29;75.76
21730;BME280;11027;51.030;13.812;2023-06-26T03:01:57;100197.84;;;19.29;75.49
21730;BME280;11027;51.030;13.812;2023-06-26T03:04:23;100202.38;;;19.24;76.03
21730;BME280;11027;51.030;13.812;2023-06-26T03:06:48;100198.66;;;19.18;75.91
21730;BME280;11027;51.030;13.812;2023-06-26T03:09:13;100196.13;;;19.16;75.96
21730;BME280;11027;51.030;13.812;2023-06-26T03:11:38;100201.41;;;19.18;75.98
21730;BME280;11027;51.030;13.812;2023-06-26T03:14:04;100203.09;;;19.19;76.23
21730;BME280;11027;51.030;13.812;2023-06-26T03:16:29;100196.97;;;19.17;75.99
21730;BME280;11027;51.030;13.812;2023-06-26T03:18:54;100197.44;;;19.14;76.34
21730;BME280;11027;51.030;13.812;2023-06-26T03:21:19;100195.78;;;19.13;76.07
21730;BME280;11027;51.030;13.812;2023-06-26T03:23:45;100191.31;;;19.12;76.15
21730;BME280;11027;51.030;13.812;2023-06-26T03:26:10;100198.03;;;19.16;76.58
21730;BME280;11027;51.030;13.812;2023-06-26T03:28:35;100197.81;;;19.17;76.35
21730;BME280;11027;51.030;13.812;2023-06-26T03:31:01;100205.00;;;19.18;76.23
21730;BME280;11027;51.030;13.812;2023-06-26T03:33:26;100195.06;;;19.17;76.39
21730;BME280;11027;51.030;13.812;2023-06-26T03:35:51;100201.56;;;19.23;76.34
21730;BME280;11027;51.030;13.812;2023-06-26T03:38:17;100201.91;;;19.27;76.50
21730;BME280;11027;51.030;13.812;2023-06-26T03:40:42;100198.91;;;19.28;76.06
21730;BME280;11027;51.030;13.812;2023-06-26T03:43:07;100187.84;;;19.28;75.95
21730;BME280;11027;51.030;13.812;2023-06-26T03:45:32;100195.69;;;19.31;76.05
21730;BME280;11027;51.030;13.812;2023-06-26T03:47:58;100193.25;;;19.35;75.88
21730;BME280;11027;51.030;13.812;2023-06-26T03:50:23;100187.50;;;19.36;75.68
21730;BME280;11027;51.030;13.812;2023-06-26T03:52:48;100188.72;;;19.41;75.68
21730;BME280;11027;51.030;13.812;2023-06-26T03:55:15;100182.13;;;19.42;75.68
21730;BME280;11027;51.030;13.812;2023-06-26T03:57:40;100186.56;;;19.43;75.66
21730;BME280;11027;51.030;13.812;2023-06-26T04:00:06;100181.63;;;19.45;75.37
21730;BME280;11027;51.030;13.812;2023-06-26T04:02:36;100173.25;;;19.39;75.57
21730;BME280;11027;51.030;13.812;2023-06-26T04:05:01;100179.72;;;19.33;75.90
21730;BME280;11027;51.030;13.812;2023-06-26T04:07:28;100178.03;;;19.32;75.82
21730;BME280;11027;51.030;13.812;2023-06-26T04:09:53;100181.38;;;19.34;75.51
21730;BME280;11027;51.030;13.812;2023-06-26T04:12:19;100169.88;;;19.37;75.62
21730;BME280;11027;51.030;13.812;2023-06-26T04:14:45;100172.41;;;19.39;75.57
21730;BME280;11027;51.030;13.812;2023-06-26T04:17:10;100170.72;;;19.38;75.44
21730;BME280;11027;51.030;13.812;2023-06-26T04:19:35;100163.75;;;19.35;75.68
21730;BME280;11027;51.030;13.812;2023-06-26T04:22:01;100173.69;;;19.36;75.47
21730;BME280;11027;51.030;13.812;2023-06-26T04:24:27;100161.44;;;19.32;75.52
21730;BME280;11027;51.030;13.812;2023-06-26T04:26:52;100167.47;;;19.29;75.83
21730;BME280;11027;51.030;13.812;2023-06-26T04:29:17;100166.59;;;19.29;75.67
21730;BME280;11027;51.030;13.812;2023-06-26T04:31:42;100166.97;;;19.32;75.80
21730;BME280;11027;51.030;13.812;2023-06-26T04:34:11;100166.97;;;19.32;76.21
21730;BME280;11027;51.030;13.812;2023-06-26T04:36:37;100171.28;;;19.28;76.33
21730;BME280;11027;51.030;13.812;2023-06-26T04:39:03;100164.56;;;19.24;76.25
21730;BME280;11027;51.030;13.812;2023-06-26T04:41:29;100168.41;;;19.23;76.49
21730;BME280;11027;51.030;13.812;2023-06-26T04:43:55;100162.63;;;19.25;76.78
21730;BME280;11027;51.030;13.812;2023-06-26T04:46:20;100165.38;;;19.25;76.73
21730;BME280;11027;51.030;13.812;2023-06-26T04:48:45;100162.16;;;19.28;76.48
21730;BME280;11027;51.030;13.812;2023-06-26T04:51:11;100161.06;;;19.29;76.54
21730;BME280;11027;51.030;13.812;2023-06-26T04:53:36;100166.13;;;19.32;76.62
21730;BME280;11027;51.030;13.812;2023-06-26T04:56:02;100168.06;;;19.31;76.66
21730;BME280;11027;51.030;13.812;2023-06-26T04:58:28;100160.38;;;19.33;76.77
21730;BME280;11027;51.030;13.812;2023-06-26T05:00:53;100162.66;;;19.36;77.00
21730;BME280;11027;51.030;13.812;2023-06-26T05:03:18;100157.13;;;19.36;76.73
21730;BME280;11027;51.030;13.812;2023-06-26T05:05:44;100151.75;;;19.42;77.01
21730;BME280;11027;51.030;13.812;2023-06-26T05:08:16;100155.94;;;19.44;77.01
21730;BME280;11027;51.030;13.812;2023-06-26T05:10:42;100156.91;;;19.50;76.94
21730;BME280;11027;51.030;13.812;2023-06-26T05:13:07;100151.97;;;19.52;76.88
21730;BME280;11027;51.030;13.812;2023-06-26T05:15:32;100153.41;;;19.54;76.78
21730;BME280;11027;51.030;13.812;2023-06-26T05:17:58;100151.25;;;19.56;76.86
21730;BME280;11027;51.030;13.812;2023-06-26T05:20:23;100140.56;;;19.60;77.02
21730;BME280;11027;51.030;13.812;2023-06-26T05:22:49;100143.94;;;19.62;77.23
21730;BME280;11027;51.030;13.812;2023-06-26T05:25:15;100144.28;;;19.66;77.28
21730;BME280;11027;51.030;13.812;2023-06-26T05:27:40;100143.78;;;19.69;77.38
21730;BME280;11027;51.030;13.812;2023-06-26T05:30:06;100137.19;;;19.70;77.30
21730;BME280;11027;51.030;13.812;2023-06-26T05:32:34;100137.31;;;19.75;77.04
21730;BME280;11027;51.030;13.812;2023-06-26T05:35:01;100133.25;;;19.77;77.32
21730;BME280;11027;51.030;13.812;2023-06-26T05:37:27;100130.00;;;19.81;77.49
21730;BME280;11027;51.030;13.812;2023-06-26T05:39:53;100117.59;;;19.83;77.45
21730;BME280;11027;51.030;13.812;2023-06-26T05:42:19;100120.97;;;19.85;77.43
21730;BME280;11027;51.030;13.812;2023-06-26T05:44:44;100120.50;;;19.88;77.14
21730;BME280;11027;51.030;13.812;2023-06-26T05:47:10;100117.50;;;19.90;77.49
21730;BME280;11027;51.030;13.812;2023-06-26T05:49:35;100115.94;;;19.94;77.44
21730;BME280;11027;51.030;13.812;2023-06-26T05:52:01;100118.53;;;20.01;77.44
21730;BME280;11027;51.030;13.812;2023-06-26T05:54:26;100117.22;;;20.03;77.44
21730;BME280;11027;51.030;13.812;2023-06-26T05:56:57;100111.81;;;20.08;77.26
21730;BME280;11027;51.030;13.812;2023-06-26T05:59:26;100109.13;;;20.13;77.30
21730;BME280;11027;51.030;13.812;2023-06-26T06:01:52;100109.25;;;20.18;77.36
21730;BME280;11027;51.030;13.812;2023-06-26T06:04:17;100117.63;;;20.24;77.43
21730;BME280;11027;51.030;13.812;2023-06-26T06:06:42;100107.75;;;20.28;77.12
21730;BME280;11027;51.030;13.812;2023-06-26T06:09:07;100105.34;;;20.31;77.17
21730;BME280;11027;51.030;13.812;2023-06-26T06:11:33;100102.94;;;20.35;77.23
21730;BME280;11027;51.030;13.812;2023-06-26T06:13:58;100098.56;;;20.39;77.17
21730;BME280;11027;51.030;13.812;2023-06-26T06:16:24;100107.00;;;20.44;76.83
21730;BME280;11027;51.030;13.812;2023-06-26T06:18:50;100102.63;;;20.48;76.60
21730;BME280;11027;51.030;13.812;2023-06-26T06:21:15;100099.94;;;20.53;76.99
21730;BME280;11027;51.030;13.812;2023-06-26T06:23:40;100098.38;;;20.57;76.67
21730;BME280;11027;51.030;13.812;2023-06-26T06:26:05;100091.28;;;20.62;76.22
21730;BME280;11027;51.030;13.812;2023-06-26T06:28:31;100086.91;;;20.66;76.34
21730;BME280;11027;51.030;13.812;2023-06-26T06:30:56;100090.88;;;20.70;75.97
21730;BME280;11027;51.030;13.812;2023-06-26T06:33:21;100090.97;;;20.75;75.99
21730;BME280;11027;51.030;13.812;2023-06-26T06:35:46;100082.75;;;20.80;75.47
21730;BME280;11027;51.030;13.812;2023-06-26T06:38:12;100085.84;;;20.84;75.04
21730;BME280;11027;51.030;13.812;2023-06-26T06:40:37;100080.41;;;20.89;74.70
21730;BME280;11027;51.030;13.812;2023-06-26T06:43:02;100088.53;;;20.95;73.93
21730;BME280;11027;51.030;13.812;2023-06-26T06:45:27;100085.88;;;21.01;73.71
21730;BME280;11027;51.030;13.812;2023-06-26T06:47:53;100083.19;;;21.06;73.30
21730;BME280;11027;51.030;13.812;2023-06-26T06:50:18;100077.72;;;21.11;72.99
21730;BME280;11027;51.030;13.812;2023-06-26T06:52:43;100071.66;;;21.14;72.76
21730;BME280;11027;51.030;13.812;2023-06-26T06:55:09;100072.84;;;21.18;72.85
21730;BME280;11027;51.030;13.812;2023-06-26T06:57:39;100075.72;;;21.23;72.95
21730;BME280;11027;51.030;13.812;2023-06-26T07:00:06;100076.34;;;21.30;72.91
21730;BME280;11027;51.030;13.812;2023-06-26T07:02:39;100066.44;;;21.34;73.00
21730;BME280;11027;51.030;13.812;2023-06-26T07:05:05;100067.59;;;21.38;72.89
21730;BME280;11027;51.030;13.812;2023-06-26T07:07:32;100074.34;;;21.43;72.82
21730;BME280;11027;51.030;13.812;2023-06-26T07:10:03;100069.47;;;21.50;72.98
21730;BME280;11027;51.030;13.812;2023-06-26T07:12:31;100054.34;;;21.57;72.67
21730;BME280;11027;51.030;13.812;2023-06-26T07:14:57;100063.53;;;21.63;72.45
21730;BME280;11027;51.030;13.812;2023-06-26T07:17:22;100058.34;;;21.67;72.30
21730;BME280;11027;51.030;13.812;2023-06-26T07:19:48;100058.66;;;21.70;72.39
21730;BME280;11027;51.030;13.812;2023-06-26T07:22:14;100057.88;;;21.75;72.27
21730;BME280;11027;51.030;13.812;2023-06-26T07:24:39;100062.94;;;21.78;72.13
21730;BME280;11027;51.030;13.812;2023-06-26T07:27:05;100063.25;;;21.82;72.01
21730;BME280;11027;51.030;13.812;2023-06-26T07:29:30;100050.56;;;21.86;71.80
21730;BME280;11027;51.030;13.812;2023-06-26T07:31:55;100064.47;;;21.91;71.53
21730;BME280;11027;51.030;13.812;2023-06-26T07:34:20;100055.38;;;21.95;71.43
21730;BME280;11027;51.030;13.812;2023-06-26T07:36:46;100048.22;;;22.00;71.20
21730;BME280;11027;51.030;13.812;2023-06-26T07:39:11;100054.06;;;22.03;71.09
21730;BME280;11027;51.030;13.812;2023-06-26T07:41:36;100050.25;;;22.09;71.17
21730;BME280;11027;51.030;13.812;2023-06-26T07:44:01;100041.47;;;22.17;71.11
21730;BME280;11027;51.030;13.812;2023-06-26T07:46:27;100041.63;;;22.28;71.10
21730;BME280;11027;51.030;13.812;2023-06-26T07:48:52;100050.00;;;22.33;70.69
21730;BME280;11027;51.030;13.812;2023-06-26T07:51:18;100047.31;;;22.38;70.45
21730;BME280;11027;51.030;13.812;2023-06-26T07:53:43;100046.25;;;22.44;70.34
21730;BME280;11027;51.030;13.812;2023-06-26T07:56:08;100045.72;;;22.47;70.04
21730;BME280;11027;51.030;13.812;2023-06-26T07:58:34;100045.19;;;22.50;69.85
21730;BME280;11027;51.030;13.812;2023-06-26T08:00:59;100035.75;;;22.51;69.92
21730;BME280;11027;51.030;13.812;2023-06-26T08:03:24;100041.88;;;22.53;69.71
21730;BME280;11027;51.030;13.812;2023-06-26T08:05:49;100032.19;;;22.56;69.62
21730;BME280;11027;51.030;13.812;2023-06-26T08:08:15;100030.28;;;22.62;69.38
21730;BME280;11027;51.030;13.812;2023-06-26T08:10:40;100029.78;;;22.65;69.33
21730;BME280;11027;51.030;13.812;2023-06-26T08:13:05;100029.81;;;22.70;69.46
21730;BME280;11027;51.030;13.812;2023-06-26T08:15:30;100025.97;;;22.76;69.59
21730;BME280;11027;51.030;13.812;2023-06-26T08:17:55;100027.13;;;22.80;69.97
21730;BME280;11027;51.030;13.812;2023-06-26T08:20:21;100029.38;;;22.83;69.49
21730;BME280;11027;51.030;13.812;2023-06-26T08:22:47;100016.09;;;22.90;69.00
21730;BME280;11027;51.030;13.812;2023-06-26T08:25:14;100014.03;;;23.03;68.09
21730;BME280;11027;51.030;13.812;2023-06-26T08:27:39;100014.09;;;23.13;67.66
21730;BME280;11027;51.030;13.812;2023-06-26T08:30:05;100010.81;;;23.21;67.42
21730;BME280;11027;51.030;13.812;2023-06-26T08:32:30;100010.81;;;23.26;67.01
21730;BME280;11027;51.030;13.812;2023-06-26T08:34:56;100003.91;;;23.34;66.63
21730;BME280;11027;51.030;13.812;2023-06-26T08:37:21;100006.44;;;23.41;66.20
21730;BME280;11027;51.030;13.812;2023-06-26T08:39:47;100005.34;;;23.42;65.64
21730;BME280;11027;51.030;13.812;2023-06-26T08:42:13;100000.38;;;23.44;64.87
21730;BME280;11027;51.030;13.812;2023-06-26T08:44:38;100000.94;;;23.46;63.88
21730;BME280;11027;51.030;13.812;2023-06-26T08:47:04;99994.00;;;23.48;63.55
21730;BME280;11027;51.030;13.812;2023-06-26T08:49:37;99995.94;;;23.53;63.27
21730;BME280;11027;51.030;13.812;2023-06-26T08:52:17;99993.19;;;23.58;62.87
21730;BME280;11027;51.030;13.812;2023-06-26T08:54:46;99987.09;;;23.61;62.69
21730;BME280;11027;51.030;13.812;2023-06-26T08:57:18;99992.13;;;23.64;62.45
21730;BME280;11027;51.030;13.812;2023-06-26T08:59:44;99993.25;;;23.68;61.69
21730;BME280;11027;51.030;13.812;2023-06-26T09:02:10;99981.28;;;23.73;60.77
21730;BME280;11027;51.030;13.812;2023-06-26T09:04:35;99984.38;;;23.76;60.47
21730;BME280;11027;51.030;13.812;2023-06-26T09:07:01;99989.44;;;23.80;59.94
21730;BME280;11027;51.030;13.812;2023-06-26T09:09:26;99978.56;;;23.83;59.72
21730;BME280;11027;51.030;13.812;2023-06-26T09:11:52;99978.34;;;23.90;59.50
21730;BME280;11027;51.030;13.812;2023-06-26T09:14:17;99975.56;;;23.95;58.78
21730;BME280;11027;51.030;13.812;2023-06-26T09:16:42;99979.47;;;23.99;59.39
21730;BME280;11027;51.030;13.812;2023-06-26T09:19:11;99969.75;;;24.02;58.65
21730;BME280;11027;51.030;13.812;2023-06-26T09:21:38;99976.44;;;24.06;58.61
21730;BME280;11027;51.030;13.812;2023-06-26T09:24:06;99973.38;;;24.12;58.23
21730;BME280;11027;51.030;13.812;2023-06-26T09:26:33;99965.59;;;24.20;57.96
21730;BME280;11027;51.030;13.812;2023-06-26T09:28:58;99967.81;;;24.28;57.83
21730;BME280;11027;51.030;13.812;2023-06-26T09:31:24;99970.09;;;24.36;57.76
21730;BME280;11027;51.030;13.812;2023-06-26T09:33:57;99965.88;;;24.44;57.52
21730;BME280;11027;51.030;13.812;2023-06-26T09:36:22;99960.66;;;24.52;57.13
21730;BME280;11027;51.030;13.812;2023-06-26T09:38:50;99956.47;;;24.65;57.05
21730;BME280;11027;51.030;13.812;2023-06-26T09:41:19;99959.78;;;24.78;57.11
21730;BME280;11027;51.030;13.812;2023-06-26T09:43:51;99954.50;;;24.81;56.93
21730;BME280;11027;51.030;13.812;2023-06-26T09:46:27;99963.41;;;24.83;56.93
21730;BME280;11027;51.030;13.812;2023-06-26T09:49:04;99958.94;;;24.87;56.63
21730;BME280;11027;51.030;13.812;2023-06-26T09:51:34;99961.47;;;24.89;55.94
21730;BME280;11027;51.030;13.812;2023-06-26T09:54:00;99960.06;;;24.97;54.35
21730;BME280;11027;51.030;13.812;2023-06-26T09:56:27;99965.06;;;25.00;53.95
21730;BME280;11027;51.030;13.812;2023-06-26T09:58:55;99953.38;;;24.98;54.06
21730;BME280;11027;51.030;13.812;2023-06-26T10:01:21;99950.03;;;24.95;54.21
21730;BME280;11027;51.030;13.812;2023-06-26T10:03:46;99950.56;;;24.98;54.60
21730;BME280;11027;51.030;13.812;2023-06-26T10:06:12;99947.25;;;25.01;54.00
21730;BME280;11027;51.030;13.812;2023-06-26T10:08:39;99944.44;;;25.06;53.66
21730;BME280;11027;51.030;13.812;2023-06-26T10:11:07;99938.53;;;25.12;53.46
21730;BME280;11027;51.030;13.812;2023-06-26T10:13:38;99937.13;;;25.20;53.21
21730;BME280;11027;51.030;13.812;2023-06-26T10:16:06;99933.25;;;25.26;53.00
21730;BME280;11027;51.030;13.812;2023-06-26T10:18:33;99922.09;;;25.31;53.13
21730;BME280;11027;51.030;13.812;2023-06-26T10:21:01;99927.34;;;25.38;53.02
21730;BME280;11027;51.030;13.812;2023-06-26T10:23:29;99918.16;;;25.38;52.38
21730;BME280;11027;51.030;13.812;2023-06-26T10:25:58;99926.53;;;25.38;52.48
21730;BME280;11027;51.030;13.812;2023-06-26T10:28:26;99921.50;;;25.40;52.09
21730;BME280;11027;51.030;13.812;2023-06-26T10:30:53;99927.34;;;25.43;50.47
21730;BME280;11027;51.030;13.812;2023-06-26T10:33:20;99916.69;;;25.50;50.30
21730;BME280;11027;51.030;13.812;2023-06-26T10:35:45;99917.50;;;25.56;49.26
21730;BME280;11027;51.030;13.812;2023-06-26T10:38:11;99915.25;;;25.63;49.24
21730;BME280;11027;51.030;13.812;2023-06-26T10:40:41;99919.69;;;25.69;48.00
21730;BME280;11027;51.030;13.812;2023-06-26T10:43:08;99913.44;;;25.83;46.83
21730;BME280;11027;51.030;13.812;2023-06-26T10:45:34;99907.84;;;25.93;47.14
21730;BME280;11027;51.030;13.812;2023-06-26T10:48:00;99905.56;;;26.00;47.08
21730;BME280;11027;51.030;13.812;2023-06-26T10:50:27;99900.47;;;26.07;47.23
21730;BME280;11027;51.030;13.812;2023-06-26T10:53:14;99902.09;;;26.13;47.43
21730;BME280;11027;51.030;13.812;2023-06-26T10:55:42;99896.78;;;26.17;47.73
21730;BME280;11027;51.030;13.812;2023-06-26T10:58:26;99898.94;;;26.25;46.98
21730;BME280;11027;51.030;13.812;2023-06-26T11:04:13;99897.41;;;26.43;47.67
21730;BME280;11027;51.030;13.812;2023-06-26T11:06:32;99904.25;;;26.56;46.84
21730;BME280;11027;51.030;13.812;2023-06-26T11:14:13;99886.06;;;26.64;45.35
21730;BME280;11027;51.030;13.812;2023-06-26T11:16:42;99881.75;;;26.77;44.52
21730;BME280;11027;51.030;13.812;2023-06-26T11:19:08;99876.91;;;26.87;44.57
21730;BME280;11027;51.030;13.812;2023-06-26T11:21:34;99879.97;;;26.86;44.42
21730;BME280;11027;51.030;13.812;2023-06-26T11:24:01;99876.91;;;26.87;44.81
21730;BME280;11027;51.030;13.812;2023-06-26T11:26:27;99875.94;;;26.97;44.69
21730;BME280;11027;51.030;13.812;2023-06-26T11:28:55;99875.47;;;27.14;44.24
21730;BME280;11027;51.030;13.812;2023-06-26T11:31:32;99868.28;;;27.32;43.77
21730;BME280;11027;51.030;13.812;2023-06-26T11:34:03;99866.16;;;27.43;43.31
21730;BME280;11027;51.030;13.812;2023-06-26T11:36:29;99870.22;;;27.56;42.90
21730;BME280;11027;51.030;13.812;2023-06-26T11:38:56;99866.34;;;27.70;43.60
21730;BME280;11027;51.030;13.812;2023-06-26T11:41:22;99856.84;;;27.71;43.44
21730;BME280;11027;51.030;13.812;2023-06-26T11:43:48;99859.09;;;27.69;42.88
21730;BME280;11027;51.030;13.812;2023-06-26T11:46:16;99862.88;;;27.79;42.80
21730;BME280;11027;51.030;13.812;2023-06-26T11:48:42;99861.91;;;27.88;41.90
21730;BME280;11027;51.030;13.812;2023-06-26T11:51:07;99853.06;;;28.00;41.45
21730;BME280;11027;51.030;13.812;2023-06-26T11:53:39;99853.94;;;28.15;41.16
21730;BME280;11027;51.030;13.812;2023-06-26T11:56:12;99845.28;;;28.30;40.88
21730;BME280;11027;51.030;13.812;2023-06-26T12:01:34;99853.88;;;28.52;41.65
21730;BME280;11027;51.030;13.812;2023-06-26T12:04:02;99847.56;;;28.61;41.92
21730;BME280;11027;51.030;13.812;2023-06-26T12:06:34;99842.03;;;28.56;41.77
21730;BME280;11027;51.030;13.812;2023-06-26T12:09:05;99845.47;;;28.52;41.17
21730;BME280;11027;51.030;13.812;2023-06-26T12:11:32;99841.00;;;28.51;41.40
21730;BME280;11027;51.030;13.812;2023-06-26T12:13:58;99837.41;;;28.65;41.55
21730;BME280;11027;51.030;13.812;2023-06-26T12:16:24;99836.75;;;28.68;41.57
21730;BME280;11027;51.030;13.812;2023-06-26T12:18:50;99841.03;;;28.79;41.62
21730;BME280;11027;51.030;13.812;2023-06-26T12:21:43;99835.66;;;28.97;41.47
21730;BME280;11027;51.030;13.812;2023-06-26T12:24:10;99832.25;;;29.14;40.83
21730;BME280;11027;51.030;13.812;2023-06-26T12:26:37;99819.03;;;29.28;40.90
21730;BME280;11027;51.030;13.812;2023-06-26T12:29:04;99820.25;;;29.36;40.73
21730;BME280;11027;51.030;13.812;2023-06-26T12:31:31;99812.13;;;29.48;40.81
21730;BME280;11027;51.030;13.812;2023-06-26T12:33:56;99809.91;;;29.59;40.66
21730;BME280;11027;51.030;13.812;2023-06-26T12:36:22;99815.22;;;29.60;39.96
21730;BME280;11027;51.030;13.812;2023-06-26T12:38:48;99810.59;;;29.42;40.02
21730;BME280;11027;51.030;13.812;2023-06-26T12:41:15;99805.31;;;29.26;40.15
21730;BME280;11027;51.030;13.812;2023-06-26T12:43:42;99811.97;;;29.17;39.94
21730;BME280;11027;51.030;13.812;2023-06-26T12:46:07;99799.59;;;29.04;40.41
21730;BME280;11027;51.030;13.812;2023-06-26T12:48:43;99805.72;;;29.06;41.00
21730;BME280;11027;51.030;13.812;2023-06-26T12:51:13;99801.38;;;29.14;40.93
21730;BME280;11027;51.030;13.812;2023-06-26T12:53:39;99800.63;;;29.08;41.05